Terminal Aerodrome Forecast
Issued by NWS

Home | Current Version | Previous Version | Text Only | Print | Product List | Glossary On
Versions: 1 2 3 4 5 6 7 8 9 10 11 12 13 14
516
FTUS43 KBIS 102325
TAFMOT
TAF
KMOT 102325Z 1100/1124 09009KT 6SM -SN OVC045
     FM110500 06008KT 1SM -SN OVC015
     FM111200 05005KT P6SM BKN015
     FM111800 27006KT P6SM BKN035=

USA.gov is the U.S. government's official web portal to all federal, state and local government web resources and services.